Scarborough, ME (04074)

4:02 PM EDT on July 29, 2015 (GMT -0400)
Eastern Village - Scarborough | | Change Station
CLOSE
Current Station
Personal Weather Station
Location: Scarborough, ME
Elevation: 82 ft
Nearby Weather Stations

Elev 82 ft 43.58 °N, 70.34 °W | Updated 14 seconds ago

Overcast
Overcast
87.0 °F
Feels Like 92 °F
N
2.0
Wind Variable Wind from SSE
Gusts 7.0 mph

Today
High -- | Low -- °F
--% Chance of Precip.
Yesterday
High -- | Low -- °F
Precip. -- in
5:27 AM 8:07 PM
Waxing Gibbous, 96% visible
Pressure 29.87 in
Visibility 10.0 miles
Clouds Scattered Clouds 5000 ft
Mostly Cloudy 8000 ft
Heat Index 92 °F
Dew Point 69 °F
Humidity 56%
Rainfall 0.00 in
Snow Depth Not available.
UV 3 out of 12
Pollen 5.60 out of 12
Air Quality Not available.
Flu Activity Not available.
METAR KPWM 291951Z 18012KT 10SM SCT050 BKN080 29/20 A2987 RMK AO2 RAB11E24 SLP115 P0000 T02890200

More Conditions Fewer Conditions

Pressure 29.87 in
Visibility 10.0 miles
Clouds Scattered Clouds 5000 ft
Mostly Cloudy 8000 ft
Heat Index 92 °F
Dew Point 69 °F
Humidity 56%
Rainfall 0.00 in
Snow Depth Not available.
UV 3 out of 12
Pollen 5.60 out of 12
Air Quality Not available.
Flu Activity Not available.
METAR KPWM 291951Z 18012KT 10SM SCT050 BKN080 29/20 A2987 RMK AO2 RAB11E24 SLP115 P0000 T02890200

More Conditions Fewer Conditions

10-Day Weather Forecast

×

Almanac

Astronomy

Jul. 29, 2015 Rise Set
Actual Time
Civil Twilight
Nautical Twilight
Astronomical Twilight
Moon
Length of Visible Light
Length of Day
Tomorrow will be .
, % of the Moon is Illuminated

Today's Extremes

State Highs State Lows

Community

WunderPhotos

Upload Photos

1,842,157 photos uploaded!

WunderBlogs® & News

Nearby

Air Quality

  Air Quality AQ Index Pollutant
Not available.

Snow Depth

Station Depth Elevation

Earthquake Activity

City Distance Mag. Time & Date
Minimum magnitude displayed is 2.5.

Coastal Water Temperatures

Place Temperature

Stations

Nearby Weather Stations

Station Location Temp. Windchill Dew Point Humidity Wind Precip. Elev Updated Type
                   
Severe Thunderstorm Warning
Statement as of 3:59 PM EDT on July 29, 2015

... The Severe Thunderstorm Warning for east central Cumberland County
will expire at 400 PM EDT...

the storm which prompted the warning has weakened below severe
limits... and no longer poses an immediate threat to life or property.
Therefore the warning will be allowed to expire.

Lat... Lon 4391 7010 4392 6994 4372 6994 4377 6996
      4375 6997 4377 6997 4380 6995 4382 6995
      4371 7000 4377 7006 4386 6995 4380 7004
      4387 6998 4381 7010 4385 7008 4384 7010
      4375 7014
time... Mot... loc 1953z 353deg 15kt 4384 7006